PWSweather.com
Personal Weather Stations
Station Observations
WAIROAHB
Wairoa, Northern Hawkes Bay -NZ 4108

WairoaNorthern Hawkes Bay -NZ 4108

Lat: -39.04516934, Lon: 177.4263989

Elevation: 156

Station Type: WS3083

http://wairoa.net/weather/index.htm

High Low Average
Temperature 75.2°F24.0°C 58.6°F14.8°C 66.1°F18.9°C
Dew Point 66.7°F19.3°C 58.4°F14.7°C 62.5°F16.9°C
Winds 13.0 mph 20.9 kmh Calm Calm 3.0 mph E4.8 kmh E
Wind Gusts 23.5 mph37.8 kmh -- 6.0 mph9.7 kmh
Humidity 99% 71% 89%
Pressure 29.81 in1009.5 mb 29.66 in1004.4 mb -
Precipitation 0.05 in1.3 mm - -
Hour Temp Dew Point Humidity Winds Wind Gusts Pressure Precip Precip Rate Daily Precip Total
12:00 AM 61.7°F16.5°C 60.0°F15.6°C 94% 4.5 mph E7.2 kmh E 6.0 mph9.7 kmh 29.81 in1009.5 mb 0.00 in0.0 mm 0.00 in0.0 mm 0.00 in0.0 mm
12:10 AM 61.7°F16.5°C 60.0°F15.6°C 94% 2.2 mph ESE3.5 kmh ESE 6.0 mph9.7 kmh 29.80 in1009.1 mb 0.00 in0.0 mm 0.00 in0.0 mm 0.00 in0.0 mm
12:20 AM 61.7°F16.5°C 60.3°F15.7°C 95% 2.2 mph ESE3.5 kmh ESE 5.4 mph8.7 kmh 29.80 in1009.1 mb 0.00 in0.0 mm 0.00 in0.0 mm 0.00 in0.0 mm
12:30 AM 61.3°F16.3°C 59.9°F15.5°C 95% 1.6 mph ESE2.6 kmh ESE 4.5 mph7.2 kmh 29.80 in1009.1 mb 0.00 in0.0 mm 0.00 in0.0 mm 0.00 in0.0 mm
12:40 AM 61.3°F16.3°C 60.2°F15.7°C 96% 1.6 mph SE2.6 kmh SE 3.8 mph6.1 kmh 29.79 in1008.8 mb 0.00 in0.0 mm 0.00 in0.0 mm 0.00 in0.0 mm
12:50 AM 61.2°F16.2°C 60.3°F15.7°C 97% Calm Calm 3.1 mph5.0 kmh 29.79 in1008.8 mb 0.00 in0.0 mm 0.00 in0.0 mm 0.00 in0.0 mm
01:00 AM 61.2°F16.2°C 60.3°F15.7°C 97% Calm Calm 0.7 mph1.1 kmh 29.79 in1008.8 mb 0.00 in0.0 mm 0.00 in0.0 mm 0.00 in0.0 mm
01:10 AM 61.2°F16.2°C 60.3°F15.7°C 97% Calm Calm -- 29.78 in1008.5 mb 0.00 in0.0 mm 0.00 in0.0 mm 0.00 in0.0 mm
01:20 AM 61.2°F16.2°C 60.3°F15.7°C 97% Calm Calm -- 29.78 in1008.5 mb 0.00 in0.0 mm 0.00 in0.0 mm 0.00 in0.0 mm
01:30 AM 61.2°F16.2°C 60.3°F15.7°C 97% Calm Calm -- 29.78 in1008.5 mb 0.00 in0.0 mm 0.00 in0.0 mm 0.00 in0.0 mm
01:40 AM 61.2°F16.2°C 60.3°F15.7°C 97% Calm Calm -- 29.78 in1008.5 mb 0.00 in0.0 mm 0.00 in0.0 mm 0.00 in0.0 mm
01:50 AM 61.3°F16.3°C 60.8°F16.0°C 98% Calm Calm -- 29.77 in1008.1 mb 0.00 in0.0 mm 0.00 in0.0 mm 0.00 in0.0 mm
02:00 AM 61.3°F16.3°C 60.5°F15.8°C 97% Calm Calm -- 29.77 in1008.1 mb 0.00 in0.0 mm 0.00 in0.0 mm 0.00 in0.0 mm
02:10 AM 61.5°F16.4°C 60.7°F15.9°C 97% Calm Calm -- 29.76 in1007.8 mb 0.00 in0.0 mm 0.00 in0.0 mm 0.00 in0.0 mm
02:20 AM 61.5°F16.4°C 60.7°F15.9°C 97% Calm Calm -- 29.76 in1007.8 mb 0.00 in0.0 mm 0.00 in0.0 mm 0.00 in0.0 mm
02:30 AM 61.3°F16.3°C 60.5°F15.8°C 97% Calm Calm -- 29.76 in1007.8 mb 0.00 in0.0 mm 0.00 in0.0 mm 0.00 in0.0 mm
02:40 AM 61.2°F16.2°C 60.3°F15.7°C 97% Calm Calm -- 29.76 in1007.8 mb 0.00 in0.0 mm 0.00 in0.0 mm 0.00 in0.0 mm
02:50 AM 61.0°F16.1°C 60.1°F15.6°C 97% Calm Calm -- 29.76 in1007.8 mb 0.00 in0.0 mm 0.00 in0.0 mm 0.00 in0.0 mm
03:00 AM 60.8°F16.0°C 60.0°F15.6°C 97% Calm Calm -- 29.76 in1007.8 mb 0.00 in0.0 mm 0.00 in0.0 mm 0.00 in0.0 mm
03:10 AM 60.3°F15.7°C 59.7°F15.4°C 98% Calm Calm -- 29.76 in1007.8 mb 0.00 in0.0 mm 0.00 in0.0 mm 0.00 in0.0 mm
03:20 AM 59.9°F15.5°C 59.6°F15.3°C 99% Calm Calm -- 29.76 in1007.8 mb 0.00 in0.0 mm 0.00 in0.0 mm 0.00 in0.0 mm
03:30 AM 59.5°F15.3°C 59.3°F15.2°C 99% Calm Calm -- 29.75 in1007.5 mb 0.00 in0.0 mm 0.00 in0.0 mm 0.00 in0.0 mm
03:40 AM 59.4°F15.2°C 59.1°F15.1°C 99% Calm Calm -- 29.75 in1007.5 mb 0.00 in0.0 mm 0.00 in0.0 mm 0.00 in0.0 mm
03:50 AM 59.4°F15.2°C 59.1°F15.1°C 99% Calm Calm -- 29.75 in1007.5 mb 0.00 in0.0 mm 0.00 in0.0 mm 0.00 in0.0 mm
04:00 AM 59.2°F15.1°C 58.9°F14.9°C 99% Calm Calm -- 29.75 in1007.5 mb 0.00 in0.0 mm 0.00 in0.0 mm 0.00 in0.0 mm
04:10 AM 58.8°F14.9°C 58.6°F14.8°C 99% Calm Calm -- 29.75 in1007.5 mb 0.00 in0.0 mm 0.00 in0.0 mm 0.00 in0.0 mm
04:20 AM 58.6°F14.8°C 58.4°F14.7°C 99% Calm Calm -- 29.76 in1007.8 mb 0.00 in0.0 mm 0.00 in0.0 mm 0.00 in0.0 mm
04:30 AM 58.6°F14.8°C 58.4°F14.7°C 99% Calm Calm -- 29.75 in1007.5 mb 0.00 in0.0 mm 0.00 in0.0 mm 0.00 in0.0 mm
04:40 AM 58.8°F14.9°C 58.6°F14.8°C 99% Calm Calm -- 29.76 in1007.8 mb 0.01 in0.3 mm 0.06 in1.5 mm 0.01 in0.3 mm
04:50 AM 58.8°F14.9°C 58.6°F14.8°C 99% 2.2 mph NNW3.5 kmh NNW 3.1 mph5.0 kmh 29.76 in1007.8 mb 0.01 in0.3 mm 0.00 in0.0 mm 0.01 in0.3 mm
05:00 AM 58.8°F14.9°C 58.6°F14.8°C 99% Calm Calm 3.1 mph5.0 kmh 29.77 in1008.1 mb 0.01 in0.3 mm 0.00 in0.0 mm 0.01 in0.3 mm
05:10 AM 58.8°F14.9°C 58.6°F14.8°C 99% Calm Calm -- 29.76 in1007.8 mb 0.01 in0.3 mm 0.00 in0.0 mm 0.01 in0.3 mm
05:20 AM 58.8°F14.9°C 58.6°F14.8°C 99% Calm Calm -- 29.76 in1007.8 mb 0.01 in0.3 mm 0.00 in0.0 mm 0.01 in0.3 mm
05:30 AM 59.2°F15.1°C 58.9°F14.9°C 99% Calm Calm -- 29.77 in1008.1 mb 0.01 in0.3 mm 0.00 in0.0 mm 0.01 in0.3 mm
05:40 AM 59.4°F15.2°C 59.1°F15.1°C 99% Calm Calm -- 29.76 in1007.8 mb 0.00 in0.0 mm 0.00 in0.0 mm 0.01 in0.3 mm
05:50 AM 59.7°F15.4°C 59.5°F15.3°C 99% Calm Calm -- 29.76 in1007.8 mb 0.00 in0.0 mm 0.00 in0.0 mm 0.01 in0.3 mm
06:00 AM 59.7°F15.4°C 59.5°F15.3°C 99% 1.6 mph NW2.6 kmh NW 3.8 mph6.1 kmh 29.77 in1008.1 mb 0.00 in0.0 mm 0.00 in0.0 mm 0.01 in0.3 mm
06:10 AM 60.3°F15.7°C 60.0°F15.6°C 99% 0.7 mph N1.1 kmh N 3.8 mph6.1 kmh 29.78 in1008.5 mb 0.00 in0.0 mm 0.00 in0.0 mm 0.01 in0.3 mm
06:20 AM 60.6°F15.9°C 60.4°F15.8°C 99% Calm Calm 3.1 mph5.0 kmh 29.78 in1008.5 mb 0.00 in0.0 mm 0.00 in0.0 mm 0.01 in0.3 mm
06:30 AM 61.7°F16.5°C 61.1°F16.2°C 98% Calm Calm -- 29.78 in1008.5 mb 0.00 in0.0 mm 0.00 in0.0 mm 0.01 in0.3 mm
06:40 AM 63.1°F17.3°C 62.3°F16.8°C 97% Calm Calm -- 29.78 in1008.5 mb 0.00 in0.0 mm 0.00 in0.0 mm 0.01 in0.3 mm
06:50 AM 63.3°F17.4°C 62.5°F16.9°C 97% Calm Calm -- 29.78 in1008.5 mb 0.00 in0.0 mm 0.00 in0.0 mm 0.01 in0.3 mm
07:00 AM 64.2°F17.9°C 63.4°F17.4°C 97% Calm Calm -- 29.79 in1008.8 mb 0.00 in0.0 mm 0.00 in0.0 mm 0.01 in0.3 mm
07:10 AM 66.9°F19.4°C 66.1°F18.9°C 97% Calm Calm -- 29.78 in1008.5 mb 0.00 in0.0 mm 0.00 in0.0 mm 0.01 in0.3 mm
07:20 AM 68.9°F20.5°C 66.5°F19.2°C 92% Calm Calm -- 29.79 in1008.8 mb 0.00 in0.0 mm 0.00 in0.0 mm 0.01 in0.3 mm
07:30 AM 69.6°F20.9°C 65.3°F18.5°C 86% Calm Calm -- 29.79 in1008.8 mb 0.00 in0.0 mm 0.00 in0.0 mm 0.01 in0.3 mm
07:40 AM 68.0°F20.0°C 63.3°F17.4°C 85% 1.6 mph N2.6 kmh N 4.5 mph7.2 kmh 29.79 in1008.8 mb 0.00 in0.0 mm 0.00 in0.0 mm 0.01 in0.3 mm
07:50 AM 67.5°F19.7°C 63.8°F17.7°C 88% 3.1 mph N5.0 kmh N 5.4 mph8.7 kmh 29.79 in1008.8 mb 0.00 in0.0 mm 0.00 in0.0 mm 0.01 in0.3 mm
08:00 AM 67.6°F19.8°C 64.0°F17.8°C 88% 2.2 mph NNW3.5 kmh NNW 5.4 mph8.7 kmh 29.79 in1008.8 mb 0.00 in0.0 mm 0.00 in0.0 mm 0.01 in0.3 mm
08:10 AM 70.3°F21.3°C 65.6°F18.7°C 85% 0.7 mph NNW1.1 kmh NNW 3.8 mph6.1 kmh 29.79 in1008.8 mb 0.00 in0.0 mm 0.00 in0.0 mm 0.01 in0.3 mm
08:20 AM 71.4°F21.9°C 65.0°F18.3°C 80% 4.5 mph NW7.2 kmh NW 6.0 mph9.7 kmh 29.79 in1008.8 mb 0.00 in0.0 mm 0.00 in0.0 mm 0.01 in0.3 mm
08:30 AM 69.8°F21.0°C 64.1°F17.8°C 82% 3.1 mph W5.0 kmh W 6.9 mph11.1 kmh 29.79 in1008.8 mb 0.00 in0.0 mm 0.00 in0.0 mm 0.01 in0.3 mm
08:40 AM 71.6°F22.0°C 65.5°F18.6°C 81% 2.2 mph SSW3.5 kmh SSW 5.4 mph8.7 kmh 29.79 in1008.8 mb 0.00 in0.0 mm 0.00 in0.0 mm 0.01 in0.3 mm
08:50 AM 72.7°F22.6°C 65.8°F18.8°C 79% Calm Calm 4.5 mph7.2 kmh 29.78 in1008.5 mb 0.00 in0.0 mm 0.00 in0.0 mm 0.01 in0.3 mm
09:00 AM 72.0°F22.2°C 64.8°F18.2°C 78% Calm Calm 5.4 mph8.7 kmh 29.79 in1008.8 mb 0.00 in0.0 mm 0.00 in0.0 mm 0.01 in0.3 mm
09:10 AM 70.3°F21.3°C 63.9°F17.7°C 80% 5.4 mph ENE8.7 kmh ENE 12.1 mph19.5 kmh 29.79 in1008.8 mb 0.00 in0.0 mm 0.00 in0.0 mm 0.01 in0.3 mm
09:20 AM 69.6°F20.9°C 64.6°F18.1°C 84% 3.1 mph E5.0 kmh E 6.9 mph11.1 kmh 29.79 in1008.8 mb 0.00 in0.0 mm 0.00 in0.0 mm 0.01 in0.3 mm
09:30 AM 70.0°F21.1°C 63.2°F17.3°C 79% 6.0 mph ENE9.7 kmh ENE 11.4 mph18.3 kmh 29.78 in1008.5 mb 0.00 in0.0 mm 0.00 in0.0 mm 0.01 in0.3 mm
09:40 AM 70.7°F21.5°C 63.2°F17.3°C 77% 3.1 mph E5.0 kmh E 9.2 mph14.8 kmh 29.78 in1008.5 mb 0.00 in0.0 mm 0.00 in0.0 mm 0.01 in0.3 mm
09:50 AM 70.9°F21.6°C 64.1°F17.8°C 79% 6.0 mph ENE9.7 kmh ENE 8.3 mph13.4 kmh 29.78 in1008.5 mb 0.00 in0.0 mm 0.00 in0.0 mm 0.01 in0.3 mm
10:00 AM 70.3°F21.3°C 63.9°F17.7°C 80% 2.2 mph E3.5 kmh E 7.6 mph12.2 kmh 29.78 in1008.5 mb 0.00 in0.0 mm 0.00 in0.0 mm 0.01 in0.3 mm
10:10 AM 70.9°F21.6°C 64.8°F18.2°C 81% 4.5 mph E7.2 kmh E 6.9 mph11.1 kmh 29.78 in1008.5 mb 0.00 in0.0 mm 0.00 in0.0 mm 0.01 in0.3 mm
10:20 AM 71.2°F21.8°C 64.8°F18.2°C 80% 5.4 mph E8.7 kmh E 9.2 mph14.8 kmh 29.78 in1008.5 mb 0.00 in0.0 mm 0.00 in0.0 mm 0.01 in0.3 mm
10:30 AM 71.8°F22.1°C 62.7°F17.1°C 73% 4.5 mph ENE7.2 kmh ENE 9.8 mph15.8 kmh 29.78 in1008.5 mb 0.00 in0.0 mm 0.00 in0.0 mm 0.01 in0.3 mm
10:40 AM 72.0°F22.2°C 62.5°F16.9°C 72% 6.0 mph NE9.7 kmh NE 10.7 mph17.2 kmh 29.78 in1008.5 mb 0.00 in0.0 mm 0.00 in0.0 mm 0.01 in0.3 mm
10:50 AM 72.5°F22.5°C 63.8°F17.7°C 74% 3.1 mph NE5.0 kmh NE 10.7 mph17.2 kmh 29.77 in1008.1 mb 0.00 in0.0 mm 0.00 in0.0 mm 0.01 in0.3 mm
11:00 AM 71.8°F22.1°C 64.2°F17.9°C 77% 4.5 mph E7.2 kmh E 12.1 mph19.5 kmh 29.77 in1008.1 mb 0.00 in0.0 mm 0.00 in0.0 mm 0.01 in0.3 mm
11:10 AM 72.0°F22.2°C 63.3°F17.4°C 74% 8.3 mph E13.4 kmh E 11.4 mph18.3 kmh 29.76 in1007.8 mb 0.00 in0.0 mm 0.00 in0.0 mm 0.01 in0.3 mm
11:20 AM 73.2°F22.9°C 63.7°F17.6°C 72% 4.5 mph E7.2 kmh E 12.1 mph19.5 kmh 29.76 in1007.8 mb 0.00 in0.0 mm 0.00 in0.0 mm 0.01 in0.3 mm
11:30 AM 74.1°F23.4°C 64.6°F18.1°C 72% 4.5 mph E7.2 kmh E 13.0 mph20.9 kmh 29.75 in1007.5 mb 0.00 in0.0 mm 0.00 in0.0 mm 0.01 in0.3 mm
11:40 AM 75.2°F24.0°C 66.0°F18.9°C 73% 6.9 mph E11.1 kmh E 12.1 mph19.5 kmh 29.75 in1007.5 mb 0.00 in0.0 mm 0.00 in0.0 mm 0.01 in0.3 mm
11:50 AM 72.5°F22.5°C 64.9°F18.3°C 77% 5.4 mph E8.7 kmh E 12.1 mph19.5 kmh 29.75 in1007.5 mb 0.00 in0.0 mm 0.00 in0.0 mm 0.01 in0.3 mm
12:00 PM 72.0°F22.2°C 63.6°F17.6°C 75% 4.5 mph E7.2 kmh E 13.0 mph20.9 kmh 29.74 in1007.1 mb 0.00 in0.0 mm 0.00 in0.0 mm 0.01 in0.3 mm
12:10 PM 73.4°F23.0°C 65.8°F18.8°C 77% 8.3 mph E13.4 kmh E 13.0 mph20.9 kmh 29.74 in1007.1 mb 0.00 in0.0 mm 0.00 in0.0 mm 0.01 in0.3 mm
12:20 PM 75.0°F23.9°C 65.0°F18.3°C 71% 6.0 mph ENE9.7 kmh ENE 13.0 mph20.9 kmh 29.74 in1007.1 mb 0.00 in0.0 mm 0.00 in0.0 mm 0.01 in0.3 mm
12:30 PM 74.8°F23.8°C 65.2°F18.4°C 72% 7.6 mph E12.2 kmh E 11.4 mph18.3 kmh 29.73 in1006.8 mb 0.00 in0.0 mm 0.00 in0.0 mm 0.01 in0.3 mm
12:40 PM 74.7°F23.7°C 66.2°F19.0°C 75% 7.6 mph ESE12.2 kmh ESE 10.7 mph17.2 kmh 29.72 in1006.4 mb 0.00 in0.0 mm 0.00 in0.0 mm 0.01 in0.3 mm
12:50 PM 72.7°F22.6°C 62.8°F17.1°C 71% 13.0 mph ENE20.9 kmh ENE 23.5 mph37.8 kmh 29.73 in1006.8 mb 0.00 in0.0 mm 0.00 in0.0 mm 0.01 in0.3 mm
01:00 PM 69.3°F20.7°C 63.2°F17.3°C 81% 6.9 mph ENE11.1 kmh ENE 19.0 mph30.6 kmh 29.73 in1006.8 mb 0.00 in0.0 mm 0.00 in0.0 mm 0.01 in0.3 mm
01:10 PM 70.0°F21.1°C 63.6°F17.6°C 80% 3.1 mph NE5.0 kmh NE 11.4 mph18.3 kmh 29.73 in1006.8 mb 0.00 in0.0 mm 0.00 in0.0 mm 0.01 in0.3 mm
01:20 PM 70.9°F21.6°C 64.8°F18.2°C 81% 11.4 mph NE18.3 kmh NE 15.9 mph25.6 kmh 29.72 in1006.4 mb 0.00 in0.0 mm 0.00 in0.0 mm 0.01 in0.3 mm
01:30 PM 70.9°F21.6°C 63.7°F17.6°C 78% 8.3 mph E13.4 kmh E 13.6 mph21.9 kmh 29.72 in1006.4 mb 0.00 in0.0 mm 0.00 in0.0 mm 0.01 in0.3 mm
01:40 PM 70.7°F21.5°C 64.3°F17.9°C 80% 7.6 mph E12.2 kmh E 16.8 mph27.0 kmh 29.72 in1006.4 mb 0.01 in0.3 mm 0.06 in1.5 mm 0.02 in0.5 mm
01:50 PM 68.9°F20.5°C 63.9°F17.7°C 84% 3.8 mph NE6.1 kmh NE 12.1 mph19.5 kmh 29.72 in1006.4 mb 0.01 in0.3 mm 0.00 in0.0 mm 0.02 in0.5 mm
02:00 PM 69.3°F20.7°C 64.2°F17.9°C 84% 8.3 mph NE13.4 kmh NE 13.6 mph21.9 kmh 29.71 in1006.1 mb 0.01 in0.3 mm 0.00 in0.0 mm 0.02 in0.5 mm
02:10 PM 70.2°F21.2°C 64.8°F18.2°C 83% 3.1 mph NE5.0 kmh NE 13.6 mph21.9 kmh 29.71 in1006.1 mb 0.01 in0.3 mm 0.00 in0.0 mm 0.02 in0.5 mm
02:20 PM 72.0°F22.2°C 64.4°F18.0°C 77% 9.8 mph NE15.8 kmh NE 13.0 mph20.9 kmh 29.72 in1006.4 mb 0.01 in0.3 mm 0.00 in0.0 mm 0.02 in0.5 mm
02:30 PM 70.3°F21.3°C 62.8°F17.1°C 77% 5.4 mph NE8.7 kmh NE 16.8 mph27.0 kmh 29.71 in1006.1 mb 0.01 in0.3 mm 0.00 in0.0 mm 0.02 in0.5 mm
02:40 PM 69.8°F21.0°C 63.7°F17.6°C 81% 4.5 mph NE7.2 kmh NE 8.3 mph13.4 kmh 29.70 in1005.8 mb 0.00 in0.0 mm 0.00 in0.0 mm 0.02 in0.5 mm
02:50 PM 69.4°F20.8°C 64.4°F18.0°C 84% 3.8 mph NE6.1 kmh NE 11.4 mph18.3 kmh 29.71 in1006.1 mb 0.00 in0.0 mm 0.00 in0.0 mm 0.02 in0.5 mm
03:00 PM 69.1°F20.6°C 64.4°F18.0°C 85% 3.8 mph NE6.1 kmh NE 10.7 mph17.2 kmh 29.71 in1006.1 mb 0.00 in0.0 mm 0.00 in0.0 mm 0.02 in0.5 mm
03:10 PM 69.4°F20.8°C 64.8°F18.2°C 85% Calm Calm 7.6 mph12.2 kmh 29.70 in1005.8 mb 0.00 in0.0 mm 0.00 in0.0 mm 0.02 in0.5 mm
03:20 PM 69.8°F21.0°C 64.4°F18.0°C 83% 3.8 mph N6.1 kmh N 7.6 mph12.2 kmh 29.70 in1005.8 mb 0.00 in0.0 mm 0.00 in0.0 mm 0.02 in0.5 mm
03:30 PM 70.9°F21.6°C 65.8°F18.8°C 84% 4.5 mph NNW7.2 kmh NNW 6.0 mph9.7 kmh 29.70 in1005.8 mb 0.00 in0.0 mm 0.00 in0.0 mm 0.02 in0.5 mm
03:40 PM 72.0°F22.2°C 66.2°F19.0°C 82% 1.6 mph NW2.6 kmh NW 5.4 mph8.7 kmh 29.69 in1005.4 mb 0.00 in0.0 mm 0.00 in0.0 mm 0.02 in0.5 mm
03:50 PM 71.4°F21.9°C 65.3°F18.5°C 81% 2.2 mph W3.5 kmh W 3.8 mph6.1 kmh 29.69 in1005.4 mb 0.00 in0.0 mm 0.00 in0.0 mm 0.02 in0.5 mm
04:00 PM 70.7°F21.5°C 65.7°F18.7°C 84% Calm Calm 5.4 mph8.7 kmh 29.69 in1005.4 mb 0.00 in0.0 mm 0.00 in0.0 mm 0.02 in0.5 mm
04:10 PM 70.3°F21.3°C 65.6°F18.7°C 85% 3.1 mph W5.0 kmh W 4.5 mph7.2 kmh 29.69 in1005.4 mb 0.00 in0.0 mm 0.00 in0.0 mm 0.02 in0.5 mm
04:20 PM 71.4°F21.9°C 66.7°F19.3°C 85% Calm Calm 3.8 mph6.1 kmh 29.69 in1005.4 mb 0.00 in0.0 mm 0.00 in0.0 mm 0.02 in0.5 mm
04:30 PM 72.9°F22.7°C 65.6°F18.7°C 78% Calm Calm 3.8 mph6.1 kmh 29.68 in1005.1 mb 0.00 in0.0 mm 0.00 in0.0 mm 0.02 in0.5 mm
04:40 PM 72.7°F22.6°C 65.8°F18.8°C 79% 0.7 mph NE1.1 kmh NE 2.2 mph3.5 kmh 29.68 in1005.1 mb 0.00 in0.0 mm 0.00 in0.0 mm 0.02 in0.5 mm
04:50 PM 71.1°F21.7°C 64.2°F17.9°C 79% 3.8 mph ENE6.1 kmh ENE 7.6 mph12.2 kmh 29.69 in1005.4 mb 0.00 in0.0 mm 0.00 in0.0 mm 0.02 in0.5 mm
05:00 PM 70.5°F21.4°C 63.7°F17.6°C 79% 6.9 mph NNE11.1 kmh NNE 9.2 mph14.8 kmh 29.68 in1005.1 mb 0.00 in0.0 mm 0.00 in0.0 mm 0.02 in0.5 mm
05:10 PM 68.9°F20.5°C 63.2°F17.3°C 82% 5.4 mph N8.7 kmh N 10.7 mph17.2 kmh 29.68 in1005.1 mb 0.00 in0.0 mm 0.00 in0.0 mm 0.02 in0.5 mm
05:20 PM 68.7°F20.4°C 63.4°F17.4°C 83% 3.1 mph N5.0 kmh N 7.6 mph12.2 kmh 29.68 in1005.1 mb 0.00 in0.0 mm 0.00 in0.0 mm 0.02 in0.5 mm
05:30 PM 68.5°F20.3°C 63.5°F17.5°C 84% 4.5 mph N7.2 kmh N 8.3 mph13.4 kmh 29.68 in1005.1 mb 0.00 in0.0 mm 0.00 in0.0 mm 0.02 in0.5 mm
05:40 PM 68.2°F20.1°C 63.5°F17.5°C 85% 3.1 mph NNW5.0 kmh NNW 7.6 mph12.2 kmh 29.68 in1005.1 mb 0.00 in0.0 mm 0.00 in0.0 mm 0.02 in0.5 mm
05:50 PM 68.0°F20.0°C 63.3°F17.4°C 85% 0.7 mph NNW1.1 kmh NNW 5.4 mph8.7 kmh 29.69 in1005.4 mb 0.00 in0.0 mm 0.00 in0.0 mm 0.02 in0.5 mm
06:00 PM 68.4°F20.2°C 63.4°F17.4°C 84% Calm Calm 2.2 mph3.5 kmh 29.69 in1005.4 mb 0.00 in0.0 mm 0.00 in0.0 mm 0.02 in0.5 mm
06:10 PM 68.4°F20.2°C 63.0°F17.2°C 83% 0.7 mph WSW1.1 kmh WSW 3.1 mph5.0 kmh 29.70 in1005.8 mb 0.00 in0.0 mm 0.00 in0.0 mm 0.02 in0.5 mm
06:20 PM 67.8°F19.9°C 63.2°F17.3°C 85% Calm Calm 2.2 mph3.5 kmh 29.69 in1005.4 mb 0.00 in0.0 mm 0.00 in0.0 mm 0.02 in0.5 mm
06:30 PM 67.5°F19.7°C 63.2°F17.3°C 86% 1.6 mph SW2.6 kmh SW 2.2 mph3.5 kmh 29.69 in1005.4 mb 0.00 in0.0 mm 0.00 in0.0 mm 0.02 in0.5 mm
06:40 PM 66.9°F19.4°C 62.6°F17.0°C 86% 3.1 mph E5.0 kmh E 6.0 mph9.7 kmh 29.69 in1005.4 mb 0.00 in0.0 mm 0.00 in0.0 mm 0.02 in0.5 mm
06:50 PM 66.6°F19.2°C 62.3°F16.8°C 86% 5.4 mph E8.7 kmh E 8.3 mph13.4 kmh 29.69 in1005.4 mb 0.00 in0.0 mm 0.00 in0.0 mm 0.02 in0.5 mm
07:00 PM 66.0°F18.9°C 62.4°F16.9°C 88% 5.4 mph E8.7 kmh E 10.7 mph17.2 kmh 29.69 in1005.4 mb 0.00 in0.0 mm 0.00 in0.0 mm 0.02 in0.5 mm
07:10 PM 65.7°F18.7°C 62.0°F16.7°C 88% 2.2 mph E3.5 kmh E 8.3 mph13.4 kmh 29.69 in1005.4 mb 0.00 in0.0 mm 0.00 in0.0 mm 0.02 in0.5 mm
07:20 PM 65.1°F18.4°C 61.8°F16.6°C 89% 1.6 mph ESE2.6 kmh ESE 6.0 mph9.7 kmh 29.69 in1005.4 mb 0.00 in0.0 mm 0.00 in0.0 mm 0.02 in0.5 mm
07:30 PM 64.6°F18.1°C 61.6°F16.4°C 90% 6.0 mph ESE9.7 kmh ESE 7.6 mph12.2 kmh 29.70 in1005.8 mb 0.00 in0.0 mm 0.00 in0.0 mm 0.02 in0.5 mm
07:40 PM 64.6°F18.1°C 61.9°F16.6°C 91% 6.0 mph E9.7 kmh E 13.0 mph20.9 kmh 29.69 in1005.4 mb 0.00 in0.0 mm 0.00 in0.0 mm 0.02 in0.5 mm
07:50 PM 64.6°F18.1°C 61.9°F16.6°C 91% 6.0 mph E9.7 kmh E 12.1 mph19.5 kmh 29.70 in1005.8 mb 0.00 in0.0 mm 0.00 in0.0 mm 0.02 in0.5 mm
08:00 PM 64.6°F18.1°C 62.2°F16.8°C 92% 4.5 mph E7.2 kmh E 9.8 mph15.8 kmh 29.69 in1005.4 mb 0.00 in0.0 mm 0.00 in0.0 mm 0.02 in0.5 mm
08:10 PM 64.6°F18.1°C 62.2°F16.8°C 92% 3.1 mph ESE5.0 kmh ESE 9.8 mph15.8 kmh 29.70 in1005.8 mb 0.00 in0.0 mm 0.00 in0.0 mm 0.02 in0.5 mm
08:20 PM 64.0°F17.8°C 62.0°F16.7°C 93% 3.8 mph ESE6.1 kmh ESE 7.6 mph12.2 kmh 29.70 in1005.8 mb 0.00 in0.0 mm 0.00 in0.0 mm 0.02 in0.5 mm
08:30 PM 64.0°F17.8°C 62.3°F16.8°C 94% 3.8 mph ESE6.1 kmh ESE 9.2 mph14.8 kmh 29.71 in1006.1 mb 0.00 in0.0 mm 0.00 in0.0 mm 0.02 in0.5 mm
08:40 PM 64.6°F18.1°C 62.8°F17.1°C 94% 5.4 mph E8.7 kmh E 9.8 mph15.8 kmh 29.71 in1006.1 mb 0.00 in0.0 mm 0.00 in0.0 mm 0.02 in0.5 mm
08:50 PM 64.4°F18.0°C 62.7°F17.1°C 94% 5.4 mph E8.7 kmh E 7.6 mph12.2 kmh 29.71 in1006.1 mb 0.00 in0.0 mm 0.00 in0.0 mm 0.02 in0.5 mm
09:00 PM 63.9°F17.7°C 62.1°F16.7°C 94% 2.2 mph E3.5 kmh E 7.6 mph12.2 kmh 29.71 in1006.1 mb 0.00 in0.0 mm 0.00 in0.0 mm 0.02 in0.5 mm
09:10 PM 63.7°F17.6°C 62.2°F16.8°C 95% 3.1 mph E5.0 kmh E 5.4 mph8.7 kmh 29.71 in1006.1 mb 0.00 in0.0 mm 0.00 in0.0 mm 0.02 in0.5 mm
09:20 PM 63.5°F17.5°C 62.4°F16.9°C 96% 0.7 mph SE1.1 kmh SE 5.4 mph8.7 kmh 29.70 in1005.8 mb 0.00 in0.0 mm 0.00 in0.0 mm 0.02 in0.5 mm
09:30 PM 63.3°F17.4°C 62.2°F16.8°C 96% 1.6 mph NNW2.6 kmh NNW 3.8 mph6.1 kmh 29.70 in1005.8 mb 0.00 in0.0 mm 0.00 in0.0 mm 0.02 in0.5 mm
09:40 PM 63.1°F17.3°C 62.3°F16.8°C 97% Calm Calm 3.8 mph6.1 kmh 29.70 in1005.8 mb 0.02 in0.5 mm 0.12 in3.0 mm 0.05 in1.3 mm
09:50 PM 63.0°F17.2°C 62.1°F16.7°C 97% 0.7 mph SE1.1 kmh SE 3.1 mph5.0 kmh 29.70 in1005.8 mb 0.02 in0.5 mm 0.00 in0.0 mm 0.05 in1.3 mm
10:00 PM 62.8°F17.1°C 61.9°F16.6°C 97% 0.7 mph ENE1.1 kmh ENE 3.8 mph6.1 kmh 29.69 in1005.4 mb 0.02 in0.5 mm 0.00 in0.0 mm 0.05 in1.3 mm
10:10 PM 62.4°F16.9°C 61.9°F16.6°C 98% Calm Calm 2.2 mph3.5 kmh 29.69 in1005.4 mb 0.02 in0.5 mm 0.00 in0.0 mm 0.05 in1.3 mm
10:20 PM 62.1°F16.7°C 61.5°F16.4°C 98% Calm Calm -- 29.68 in1005.1 mb 0.02 in0.5 mm 0.00 in0.0 mm 0.05 in1.3 mm
10:30 PM 61.7°F16.5°C 61.1°F16.2°C 98% Calm Calm -- 29.68 in1005.1 mb 0.02 in0.5 mm 0.00 in0.0 mm 0.05 in1.3 mm
10:40 PM 61.5°F16.4°C 61.0°F16.1°C 98% Calm Calm -- 29.67 in1004.7 mb 0.00 in0.0 mm 0.00 in0.0 mm 0.05 in1.3 mm
10:50 PM 61.3°F16.3°C 60.8°F16.0°C 98% Calm Calm -- 29.67 in1004.7 mb 0.00 in0.0 mm 0.00 in0.0 mm 0.05 in1.3 mm
11:00 PM 61.3°F16.3°C 60.8°F16.0°C 98% Calm Calm 0.7 mph1.1 kmh 29.67 in1004.7 mb 0.00 in0.0 mm 0.00 in0.0 mm 0.04 in1.0 mm
11:10 PM 61.5°F16.4°C 61.0°F16.1°C 98% Calm Calm 0.7 mph1.1 kmh 29.67 in1004.7 mb 0.00 in0.0 mm 0.00 in0.0 mm 0.04 in1.0 mm
11:20 PM 61.5°F16.4°C 61.0°F16.1°C 98% Calm Calm -- 29.67 in1004.7 mb 0.00 in0.0 mm 0.00 in0.0 mm 0.04 in1.0 mm
11:30 PM 61.5°F16.4°C 61.0°F16.1°C 98% Calm Calm -- 29.66 in1004.4 mb 0.00 in0.0 mm 0.00 in0.0 mm 0.04 in1.0 mm
11:40 PM 61.5°F16.4°C 61.0°F16.1°C 98% Calm Calm -- 29.66 in1004.4 mb 0.00 in0.0 mm 0.00 in0.0 mm 0.04 in1.0 mm
11:50 PM 61.5°F16.4°C 61.0°F16.1°C 98% Calm Calm -- 29.66 in1004.4 mb 0.00 in0.0 mm 0.00 in0.0 mm 0.04 in1.0 mm